Aviation Digital Data Service (ADDS)

Output produced by METARs form (0417 UTC 19 February 2019)
found at http://www.aviationweather.gov/metar/data/
 
METAR text: TAPA 190400Z 09011KT 9999 SCT018 25/20 Q1020 NOSIG
Conditions at: TAPA (COOLIDGE/ANTIGUA, AG) observed 0400 UTC 19 February 2019
Temperature: 25.0°C (77°F)
Dewpoint: 20.0°C (68°F) [RH = 74%]
Pressure (altimeter): 30.12 inches Hg (1020.0 mb)
Winds: from the E (90 degrees) at 13 MPH (11 knots; 5.7 m/s)
Visibility: 6 or more miles (10+ km)
Ceiling: at least 12,000 feet AGL
Clouds: scattered clouds at 1800 feet AGL
Weather: no significant weather observed at this time

METAR text: TAPA 190300Z 09011KT 9999 FEW018 25/19 Q1020 NOSIG
Conditions at: TAPA (COOLIDGE/ANTIGUA, AG) observed 0300 UTC 19 February 2019
Temperature: 25.0°C (77°F)
Dewpoint: 19.0°C (66°F) [RH = 69%]
Pressure (altimeter): 30.12 inches Hg (1020.0 mb)
Winds: from the E (90 degrees) at 13 MPH (11 knots; 5.7 m/s)
Visibility: 6 or more miles (10+ km)
Ceiling: at least 12,000 feet AGL
Clouds: few clouds at 1800 feet AGL
Weather: no significant weather observed at this time

METAR text: TAPA 190200Z 08011KT 9999 FEW020 25/19 Q1020 NOSIG
Conditions at: TAPA (COOLIDGE/ANTIGUA, AG) observed 0200 UTC 19 February 2019
Temperature: 25.0°C (77°F)
Dewpoint: 19.0°C (66°F) [RH = 69%]
Pressure (altimeter): 30.12 inches Hg (1020.0 mb)
Winds: from the E (80 degrees) at 13 MPH (11 knots; 5.7 m/s)
Visibility: 6 or more miles (10+ km)
Ceiling: at least 12,000 feet AGL
Clouds: few clouds at 2000 feet AGL
Weather: no significant weather observed at this time

METAR text: TAPA 190100Z 09011KT 9999 FEW020 25/19 Q1020 NOSIG
Conditions at: TAPA (COOLIDGE/ANTIGUA, AG) observed 0100 UTC 19 February 2019
Temperature: 25.0°C (77°F)
Dewpoint: 19.0°C (66°F) [RH = 69%]
Pressure (altimeter): 30.12 inches Hg (1020.0 mb)
Winds: from the E (90 degrees) at 13 MPH (11 knots; 5.7 m/s)
Visibility: 6 or more miles (10+ km)
Ceiling: at least 12,000 feet AGL
Clouds: few clouds at 2000 feet AGL
Weather: no significant weather observed at this time

METAR text: TAPA 190000Z 09011KT 9999 FEW020 25/19 Q1020 NOSIG
Conditions at: TAPA (COOLIDGE/ANTIGUA, AG) observed 0000 UTC 19 February 2019
Temperature: 25.0°C (77°F)
Dewpoint: 19.0°C (66°F) [RH = 69%]
Pressure (altimeter): 30.12 inches Hg (1020.0 mb)
Winds: from the E (90 degrees) at 13 MPH (11 knots; 5.7 m/s)
Visibility: 6 or more miles (10+ km)
Ceiling: at least 12,000 feet AGL
Clouds: few clouds at 2000 feet AGL
Weather: no significant weather observed at this time

METAR text: TAPA 182300Z 09010KT 9999 FEW020 25/18 Q1019 NOSIG
Conditions at: TAPA (COOLIDGE/ANTIGUA, AG) observed 2300 UTC 18 February 2019
Temperature: 25.0°C (77°F)
Dewpoint: 18.0°C (64°F) [RH = 65%]
Pressure (altimeter): 30.09 inches Hg (1019.0 mb)
Winds: from the E (90 degrees) at 12 MPH (10 knots; 5.1 m/s)
Visibility: 6 or more miles (10+ km)
Ceiling: at least 12,000 feet AGL
Clouds: few clouds at 2000 feet AGL
Weather: no significant weather observed at this time

METAR text: TAPA 182200Z 09010KT 9999 FEW020 25/19 Q1019 NOSIG
Conditions at: TAPA (COOLIDGE/ANTIGUA, AG) observed 2200 UTC 18 February 2019
Temperature: 25.0°C (77°F)
Dewpoint: 19.0°C (66°F) [RH = 69%]
Pressure (altimeter): 30.09 inches Hg (1019.0 mb)
Winds: from the E (90 degrees) at 12 MPH (10 knots; 5.1 m/s)
Visibility: 6 or more miles (10+ km)
Ceiling: at least 12,000 feet AGL
Clouds: few clouds at 2000 feet AGL
Weather: no significant weather observed at this time

METAR text: TAPA 182000Z 10011KT 9999 SCT020 27/20 Q1018 NOSIG
Conditions at: TAPA (COOLIDGE/ANTIGUA, AG) observed 2000 UTC 18 February 2019
Temperature: 27.0°C (81°F)
Dewpoint: 20.0°C (68°F) [RH = 66%]
Pressure (altimeter): 30.06 inches Hg (1018.0 mb)
Winds: from the E (100 degrees) at 13 MPH (11 knots; 5.7 m/s)
Visibility: 6 or more miles (10+ km)
Ceiling: at least 12,000 feet AGL
Clouds: scattered clouds at 2000 feet AGL
Weather: no significant weather observed at this time

METAR text: TAPA 181900Z 10011KT 9999 FEW020 28/19 Q1018 NOSIG
Conditions at: TAPA (COOLIDGE/ANTIGUA, AG) observed 1900 UTC 18 February 2019
Temperature: 28.0°C (82°F)
Dewpoint: 19.0°C (66°F) [RH = 58%]
Pressure (altimeter): 30.06 inches Hg (1018.0 mb)
Winds: from the E (100 degrees) at 13 MPH (11 knots; 5.7 m/s)
Visibility: 6 or more miles (10+ km)
Ceiling: at least 12,000 feet AGL
Clouds: few clouds at 2000 feet AGL
Weather: no significant weather observed at this time

METAR text: TAPA 181800Z 10012KT 9999 FEW020 28/19 Q1019 NOSIG
Conditions at: TAPA (COOLIDGE/ANTIGUA, AG) observed 1800 UTC 18 February 2019
Temperature: 28.0°C (82°F)
Dewpoint: 19.0°C (66°F) [RH = 58%]
Pressure (altimeter): 30.09 inches Hg (1019.0 mb)
Winds: from the E (100 degrees) at 14 MPH (12 knots; 6.2 m/s)
Visibility: 6 or more miles (10+ km)
Ceiling: at least 12,000 feet AGL
Clouds: few clouds at 2000 feet AGL
Weather: no significant weather observed at this time

METAR text: TAPA 181700Z 10013KT 9999 SCT020 28/20 Q1020 NOSIG
Conditions at: TAPA (COOLIDGE/ANTIGUA, AG) observed 1700 UTC 18 February 2019
Temperature: 28.0°C (82°F)
Dewpoint: 20.0°C (68°F) [RH = 62%]
Pressure (altimeter): 30.12 inches Hg (1020.0 mb)
Winds: from the E (100 degrees) at 15 MPH (13 knots; 6.7 m/s)
Visibility: 6 or more miles (10+ km)
Ceiling: at least 12,000 feet AGL
Clouds: scattered clouds at 2000 feet AGL
Weather: no significant weather observed at this time

METAR text: TAPA 181600Z 10013KT 9999 FEW022 28/20 Q1020 NOSIG
Conditions at: TAPA (COOLIDGE/ANTIGUA, AG) observed 1600 UTC 18 February 2019
Temperature: 28.0°C (82°F)
Dewpoint: 20.0°C (68°F) [RH = 62%]
Pressure (altimeter): 30.12 inches Hg (1020.0 mb)
Winds: from the E (100 degrees) at 15 MPH (13 knots; 6.7 m/s)
Visibility: 6 or more miles (10+ km)
Ceiling: at least 12,000 feet AGL
Clouds: few clouds at 2200 feet AGL
Weather: no significant weather observed at this time

METAR text: TAPA 181500Z 11015KT 9999 FEW022 27/20 Q1020 NOSIG
Conditions at: TAPA (COOLIDGE/ANTIGUA, AG) observed 1500 UTC 18 February 2019
Temperature: 27.0°C (81°F)
Dewpoint: 20.0°C (68°F) [RH = 66%]
Pressure (altimeter): 30.12 inches Hg (1020.0 mb)
Winds: from the ESE (110 degrees) at 17 MPH (15 knots; 7.7 m/s)
Visibility: 6 or more miles (10+ km)
Ceiling: at least 12,000 feet AGL
Clouds: few clouds at 2200 feet AGL
Weather: no significant weather observed at this time

METAR text: TAPA 181400Z 10015KT 9999 FEW022 27/19 Q1020 NOSIG
Conditions at: TAPA (COOLIDGE/ANTIGUA, AG) observed 1400 UTC 18 February 2019
Temperature: 27.0°C (81°F)
Dewpoint: 19.0°C (66°F) [RH = 62%]
Pressure (altimeter): 30.12 inches Hg (1020.0 mb)
Winds: from the E (100 degrees) at 17 MPH (15 knots; 7.7 m/s)
Visibility: 6 or more miles (10+ km)
Ceiling: at least 12,000 feet AGL
Clouds: few clouds at 2200 feet AGL
Weather: no significant weather observed at this time

METAR text: TAPA 181300Z 09013KT 9999 SCT020 26/20 Q1020 NOSIG
Conditions at: TAPA (COOLIDGE/ANTIGUA, AG) observed 1300 UTC 18 February 2019
Temperature: 26.0°C (79°F)
Dewpoint: 20.0°C (68°F) [RH = 70%]
Pressure (altimeter): 30.12 inches Hg (1020.0 mb)
Winds: from the E (90 degrees) at 15 MPH (13 knots; 6.7 m/s)
Visibility: 6 or more miles (10+ km)
Ceiling: at least 12,000 feet AGL
Clouds: scattered clouds at 2000 feet AGL
Weather: no significant weather observed at this time

METAR text: TAPA 181200Z 10013KT 9999 SCT018 25/20 Q1019 NOSIG
Conditions at: TAPA (COOLIDGE/ANTIGUA, AG) observed 1200 UTC 18 February 2019
Temperature: 25.0°C (77°F)
Dewpoint: 20.0°C (68°F) [RH = 74%]
Pressure (altimeter): 30.09 inches Hg (1019.0 mb)
Winds: from the E (100 degrees) at 15 MPH (13 knots; 6.7 m/s)
Visibility: 6 or more miles (10+ km)
Ceiling: at least 12,000 feet AGL
Clouds: scattered clouds at 1800 feet AGL
Weather: no significant weather observed at this time

METAR text: TAPA 181100Z 08006KT 9999 FEW018 BKN036 23/21 Q1018 NOSIG
Conditions at: TAPA (COOLIDGE/ANTIGUA, AG) observed 1100 UTC 18 February 2019
Temperature: 23.0°C (73°F)
Dewpoint: 21.0°C (70°F) [RH = 89%]
Pressure (altimeter): 30.06 inches Hg (1018.0 mb)
Winds: from the E (80 degrees) at 7 MPH (6 knots; 3.1 m/s)
Visibility: 6 or more miles (10+ km)
Ceiling: 3600 feet AGL
Clouds: few clouds at 1800 feet AGL
broken clouds at 3600 feet AGL
Weather: no significant weather observed at this time

METAR text: TAPA 181000Z 08007KT 9999 SCT017 22/20 Q1018 NOSIG
Conditions at: TAPA (COOLIDGE/ANTIGUA, AG) observed 1000 UTC 18 February 2019
Temperature: 22.0°C (72°F)
Dewpoint: 20.0°C (68°F) [RH = 88%]
Pressure (altimeter): 30.06 inches Hg (1018.0 mb)
Winds: from the E (80 degrees) at 8 MPH (7 knots; 3.6 m/s)
Visibility: 6 or more miles (10+ km)
Ceiling: at least 12,000 feet AGL
Clouds: scattered clouds at 1700 feet AGL
Weather: no significant weather observed at this time

METAR text: TAPA 180900Z 11007KT 9999 BKN017 21/20 Q1018 NOSIG
Conditions at: TAPA (COOLIDGE/ANTIGUA, AG) observed 0900 UTC 18 February 2019
Temperature: 21.0°C (70°F)
Dewpoint: 20.0°C (68°F) [RH = 94%]
Pressure (altimeter): 30.06 inches Hg (1018.0 mb)
Winds: from the ESE (110 degrees) at 8 MPH (7 knots; 3.6 m/s)
Visibility: 6 or more miles (10+ km)
Ceiling: 1700 feet AGL
Clouds: broken clouds at 1700 feet AGL
Weather: no significant weather observed at this time

METAR text: TAPA 180800Z 09013KT 9999 -SHRA BKN017 22/20 Q1018 NOSIG
Conditions at: TAPA (COOLIDGE/ANTIGUA, AG) observed 0800 UTC 18 February 2019
Temperature: 22.0°C (72°F)
Dewpoint: 20.0°C (68°F) [RH = 88%]
Pressure (altimeter): 30.06 inches Hg (1018.0 mb)
Winds: from the E (90 degrees) at 15 MPH (13 knots; 6.7 m/s)
Visibility: 6 or more miles (10+ km)
Ceiling: 1700 feet AGL
Clouds: broken clouds at 1700 feet AGL
Weather: -SHRA  (light rain showers)

METAR text: TAPA 180700Z 07010KT 9999 SCT018 25/20 Q1018 NOSIG
Conditions at: TAPA (COOLIDGE/ANTIGUA, AG) observed 0700 UTC 18 February 2019
Temperature: 25.0°C (77°F)
Dewpoint: 20.0°C (68°F) [RH = 74%]
Pressure (altimeter): 30.06 inches Hg (1018.0 mb)
Winds: from the ENE (70 degrees) at 12 MPH (10 knots; 5.1 m/s)
Visibility: 6 or more miles (10+ km)
Ceiling: at least 12,000 feet AGL
Clouds: scattered clouds at 1800 feet AGL
Weather: no significant weather observed at this time

METAR text: TAPA 180600Z 07010KT 9999 SCT018 24/20 Q1018 NOSIG
Conditions at: TAPA (COOLIDGE/ANTIGUA, AG) observed 0600 UTC 18 February 2019
Temperature: 24.0°C (75°F)
Dewpoint: 20.0°C (68°F) [RH = 78%]
Pressure (altimeter): 30.06 inches Hg (1018.0 mb)
Winds: from the ENE (70 degrees) at 12 MPH (10 knots; 5.1 m/s)
Visibility: 6 or more miles (10+ km)
Ceiling: at least 12,000 feet AGL
Clouds: scattered clouds at 1800 feet AGL
Weather: no significant weather observed at this time

METAR text: TAPA 180500Z 09007KT 9999 SCT018 25/19 Q1018 NOSIG
Conditions at: TAPA (COOLIDGE/ANTIGUA, AG) observed 0500 UTC 18 February 2019
Temperature: 25.0°C (77°F)
Dewpoint: 19.0°C (66°F) [RH = 69%]
Pressure (altimeter): 30.06 inches Hg (1018.0 mb)
Winds: from the E (90 degrees) at 8 MPH (7 knots; 3.6 m/s)
Visibility: 6 or more miles (10+ km)
Ceiling: at least 12,000 feet AGL
Clouds: scattered clouds at 1800 feet AGL
Weather: no significant weather observed at this time

METAR text: TAPA 180400Z 09008KT 9999 SCT018 25/18 Q1019 NOSIG
Conditions at: TAPA (COOLIDGE/ANTIGUA, AG) observed 0400 UTC 18 February 2019
Temperature: 25.0°C (77°F)
Dewpoint: 18.0°C (64°F) [RH = 65%]
Pressure (altimeter): 30.09 inches Hg (1019.0 mb)
Winds: from the E (90 degrees) at 9 MPH (8 knots; 4.1 m/s)
Visibility: 6 or more miles (10+ km)
Ceiling: at least 12,000 feet AGL
Clouds: scattered clouds at 1800 feet AGL
Weather: no significant weather observed at this time

METAR text: TAPA 180300Z 09008KT 9999 FEW018 25/18 Q1020 NOSIG
Conditions at: TAPA (COOLIDGE/ANTIGUA, AG) observed 0300 UTC 18 February 2019
Temperature: 25.0°C (77°F)
Dewpoint: 18.0°C (64°F) [RH = 65%]
Pressure (altimeter): 30.12 inches Hg (1020.0 mb)
Winds: from the E (90 degrees) at 9 MPH (8 knots; 4.1 m/s)
Visibility: 6 or more miles (10+ km)
Ceiling: at least 12,000 feet AGL
Clouds: few clouds at 1800 feet AGL
Weather: no significant weather observed at this time

METAR text: TAPA 180200Z 09008KT 9999 FEW018 25/19 Q1020 NOSIG
Conditions at: TAPA (COOLIDGE/ANTIGUA, AG) observed 0200 UTC 18 February 2019
Temperature: 25.0°C (77°F)
Dewpoint: 19.0°C (66°F) [RH = 69%]
Pressure (altimeter): 30.12 inches Hg (1020.0 mb)
Winds: from the E (90 degrees) at 9 MPH (8 knots; 4.1 m/s)
Visibility: 6 or more miles (10+ km)
Ceiling: at least 12,000 feet AGL
Clouds: few clouds at 1800 feet AGL
Weather: no significant weather observed at this time

METAR text: TAPA 180100Z 11007KT 9999 FEW018 25/20 Q1019 NOSIG
Conditions at: TAPA (COOLIDGE/ANTIGUA, AG) observed 0100 UTC 18 February 2019
Temperature: 25.0°C (77°F)
Dewpoint: 20.0°C (68°F) [RH = 74%]
Pressure (altimeter): 30.09 inches Hg (1019.0 mb)
Winds: from the ESE (110 degrees) at 8 MPH (7 knots; 3.6 m/s)
Visibility: 6 or more miles (10+ km)
Ceiling: at least 12,000 feet AGL
Clouds: few clouds at 1800 feet AGL
Weather: no significant weather observed at this time

METAR text: TAPA 180000Z 12007KT 9999 FEW018 25/20 Q1019 NOSIG
Conditions at: TAPA (COOLIDGE/ANTIGUA, AG) observed 0000 UTC 18 February 2019
Temperature: 25.0°C (77°F)
Dewpoint: 20.0°C (68°F) [RH = 74%]
Pressure (altimeter): 30.09 inches Hg (1019.0 mb)
Winds: from the ESE (120 degrees) at 8 MPH (7 knots; 3.6 m/s)
Visibility: 6 or more miles (10+ km)
Ceiling: at least 12,000 feet AGL
Clouds: few clouds at 1800 feet AGL
Weather: no significant weather observed at this time

METAR text: TAPA 172300Z 12008KT 9999 FEW018 25/20 Q1018 NOSIG
Conditions at: TAPA (COOLIDGE/ANTIGUA, AG) observed 2300 UTC 17 February 2019
Temperature: 25.0°C (77°F)
Dewpoint: 20.0°C (68°F) [RH = 74%]
Pressure (altimeter): 30.06 inches Hg (1018.0 mb)
Winds: from the ESE (120 degrees) at 9 MPH (8 knots; 4.1 m/s)
Visibility: 6 or more miles (10+ km)
Ceiling: at least 12,000 feet AGL
Clouds: few clouds at 1800 feet AGL
Weather: no significant weather observed at this time

METAR text: TAPA 172200Z 12010KT 9999 FEW020 26/20 Q1018 NOSIG
Conditions at: TAPA (COOLIDGE/ANTIGUA, AG) observed 2200 UTC 17 February 2019
Temperature: 26.0°C (79°F)
Dewpoint: 20.0°C (68°F) [RH = 70%]
Pressure (altimeter): 30.06 inches Hg (1018.0 mb)
Winds: from the ESE (120 degrees) at 12 MPH (10 knots; 5.1 m/s)
Visibility: 6 or more miles (10+ km)
Ceiling: at least 12,000 feet AGL
Clouds: few clouds at 2000 feet AGL
Weather: no significant weather observed at this time

METAR text: TAPA 172100Z 11009KT 9999 FEW021 27/19 Q1017 NOSIG
Conditions at: TAPA (COOLIDGE/ANTIGUA, AG) observed 2100 UTC 17 February 2019
Temperature: 27.0°C (81°F)
Dewpoint: 19.0°C (66°F) [RH = 62%]
Pressure (altimeter): 30.03 inches Hg (1017.0 mb)
Winds: from the ESE (110 degrees) at 10 MPH (9 knots; 4.6 m/s)
Visibility: 6 or more miles (10+ km)
Ceiling: at least 12,000 feet AGL
Clouds: few clouds at 2100 feet AGL
Weather: no significant weather observed at this time

METAR text: TAPA 172000Z 12011KT 9999 FEW021 27/21 Q1017 NOSIG
Conditions at: TAPA (COOLIDGE/ANTIGUA, AG) observed 2000 UTC 17 February 2019
Temperature: 27.0°C (81°F)
Dewpoint: 21.0°C (70°F) [RH = 70%]
Pressure (altimeter): 30.03 inches Hg (1017.0 mb)
Winds: from the ESE (120 degrees) at 13 MPH (11 knots; 5.7 m/s)
Visibility: 6 or more miles (10+ km)
Ceiling: at least 12,000 feet AGL
Clouds: few clouds at 2100 feet AGL
Weather: no significant weather observed at this time

METAR text: TAPA 171900Z 11012KT 9999 FEW021 28/20 Q1017 NOSIG
Conditions at: TAPA (COOLIDGE/ANTIGUA, AG) observed 1900 UTC 17 February 2019
Temperature: 28.0°C (82°F)
Dewpoint: 20.0°C (68°F) [RH = 62%]
Pressure (altimeter): 30.03 inches Hg (1017.0 mb)
Winds: from the ESE (110 degrees) at 14 MPH (12 knots; 6.2 m/s)
Visibility: 6 or more miles (10+ km)
Ceiling: at least 12,000 feet AGL
Clouds: few clouds at 2100 feet AGL
Weather: no significant weather observed at this time

METAR text: TAPA 171800Z 11012KT 9999 FEW021 28/21 Q1018 NOSIG
Conditions at: TAPA (COOLIDGE/ANTIGUA, AG) observed 1800 UTC 17 February 2019
Temperature: 28.0°C (82°F)
Dewpoint: 21.0°C (70°F) [RH = 66%]
Pressure (altimeter): 30.06 inches Hg (1018.0 mb)
Winds: from the ESE (110 degrees) at 14 MPH (12 knots; 6.2 m/s)
Visibility: 6 or more miles (10+ km)
Ceiling: at least 12,000 feet AGL
Clouds: few clouds at 2100 feet AGL
Weather: no significant weather observed at this time

METAR text: TAPA 171700Z 12012KT 9999 SCT020 28/20 Q1019 NOSIG
Conditions at: TAPA (COOLIDGE/ANTIGUA, AG) observed 1700 UTC 17 February 2019
Temperature: 28.0°C (82°F)
Dewpoint: 20.0°C (68°F) [RH = 62%]
Pressure (altimeter): 30.09 inches Hg (1019.0 mb)
Winds: from the ESE (120 degrees) at 14 MPH (12 knots; 6.2 m/s)
Visibility: 6 or more miles (10+ km)
Ceiling: at least 12,000 feet AGL
Clouds: scattered clouds at 2000 feet AGL
Weather: no significant weather observed at this time

Forecast for: TAPA (COOLIDGE/ANTIGUA, AG)
Text: TAF TAPA 182300Z 1900/1924 07014KT 9999 SCT020
Forecast period: 0000 UTC 19 February 2019 to 0000 UTC 20 February 2019
Forecast type: FROM: standard forecast or significant change
Winds: from the ENE (70 degrees) at 16 MPH (14 knots; 7.2 m/s)
Visibility: 6 or more miles 10+ km)
Ceiling: at least 12,000 feet AGL
Clouds: scattered clouds at 2000 feet AGL
Weather: no significant weather forecast for this period